Time;durP1;ratioP1;P1;durP2;ratioP2;P2;SDS_P1;SDS_P2;PMS_P1;PMS_P2;Temp;Humidity;BMP_temperature;BMP_pressure;BME280_temperature;BME280_humidity;BME280_pressure;Samples;Min_cycle;Max_cycle;Signal;HPM_P1;HPM_P2
2021/03/25 00:01:38;;;;;;;29.15;15.70;;;3.30;99.90;;;;;;5093432;28;20067;-63
2021/03/25 00:04:04;;;;;;;27.33;14.40;;;3.30;99.90;;;;;;5080573;28;20028;-57
2021/03/25 00:06:34;;;;;;;31.23;15.93;;;3.30;99.90;;;;;;5089836;28;20031;-61
2021/03/25 00:09:00;;;;;;;24.83;13.85;;;3.30;99.90;;;;;;5092843;28;20113;-61
2021/03/25 00:11:25;;;;;;;27.40;13.57;;;3.20;99.90;;;;;;5091638;28;20036;-60
2021/03/25 00:13:51;;;;;;;23.35;13.60;;;3.20;99.90;;;;;;5094144;28;20031;-60
2021/03/25 00:16:17;;;;;;;28.75;15.75;;;3.10;99.90;;;;;;5079324;28;20362;-61
2021/03/25 00:18:43;;;;;;;26.70;13.65;;;3.00;99.90;;;;;;5091195;28;20496;-60
2021/03/25 00:21:10;;;;;;;27.73;14.52;;;3.00;99.90;;;;;;5091630;28;20020;-63
2021/03/25 00:23:36;;;;;;;27.67;14.57;;;3.00;99.90;;;;;;5092496;28;20131;-59
2021/03/25 00:26:02;;;;;;;30.52;16.27;;;3.00;99.90;;;;;;5094264;28;20035;-61
2021/03/25 00:28:28;;;;;;;27.08;15.07;;;3.00;99.90;;;;;;5090296;28;20316;-51
2021/03/25 00:30:54;;;;;;;24.83;14.57;;;2.90;99.90;;;;;;5080720;28;20512;-59
2021/03/25 00:33:21;;;;;;;31.90;15.75;;;2.90;99.90;;;;;;5093321;28;20039;-63
2021/03/25 00:35:48;;;;;;;24.55;14.00;;;2.90;99.90;;;;;;5089562;28;20028;-59
2021/03/25 00:38:14;;;;;;;28.50;14.50;;;2.80;99.90;;;;;;5079734;28;20043;-61
2021/03/25 00:40:40;;;;;;;29.75;15.05;;;2.80;99.90;;;;;;5080258;28;20059;-61
2021/03/25 00:43:08;;;;;;;28.95;14.93;;;2.70;99.90;;;;;;5089418;28;20073;-62
2021/03/25 00:45:45;;;;;;;32.10;16.50;;;2.70;99.90;;;;;;5090972;28;20036;-61
2021/03/25 00:48:12;;;;;;;29.75;15.73;;;2.70;99.90;;;;;;5093710;28;20076;-64
2021/03/25 00:50:43;;;;;;;27.90;14.32;;;2.60;99.90;;;;;;5091806;28;20150;-61
2021/03/25 00:53:12;;;;;;;27.85;15.15;;;2.60;99.90;;;;;;5088542;28;20086;-63
2021/03/25 00:55:38;;;;;;;28.40;15.75;;;2.50;99.90;;;;;;5094343;28;20032;-62
2021/03/25 00:58:04;;;;;;;28.90;14.70;;;2.50;99.90;;;;;;5092062;28;20035;-61
2021/03/25 01:00:33;;;;;;;33.88;15.70;;;2.50;99.90;;;;;;5092928;28;20063;-62
2021/03/25 01:02:59;;;;;;;31.20;15.38;;;2.50;99.90;;;;;;5090532;28;20380;-59
2021/03/25 01:05:27;;;;;;;29.35;14.55;;;2.50;99.90;;;;;;5091675;28;20028;-61
2021/03/25 01:07:53;;;;;;;31.23;16.33;;;2.50;99.90;;;;;;5093025;28;20035;-61
2021/03/25 01:10:33;;;;;;;29.70;15.32;;;2.40;99.90;;;;;;5091999;28;20023;-60
2021/03/25 01:12:59;;;;;;;;;;;2.40;99.90;;;;;;5091511;28;20232;-62
2021/03/25 01:15:26;;;;;;;26.52;14.98;;;2.40;99.90;;;;;;5091789;28;20002;-61
2021/03/25 01:17:54;;;;;;;25.50;14.70;;;2.40;99.90;;;;;;5091728;28;20038;-61
2021/03/25 01:20:36;;;;;;;30.17;15.25;;;2.30;99.90;;;;;;5094690;28;20069;-61
2021/03/25 01:23:03;;;;;;;32.60;16.27;;;2.30;99.90;;;;;;5093639;28;20031;-61
2021/03/25 01:25:29;;;;;;;27.30;15.60;;;2.30;99.90;;;;;;5094133;28;20039;-59
2021/03/25 01:27:56;;;;;;;33.42;16.13;;;2.30;99.90;;;;;;5095399;28;20039;-61
2021/03/25 01:30:22;;;;;;;27.70;14.93;;;2.20;99.90;;;;;;5094198;28;20024;-61
2021/03/25 01:32:49;;;;;;;28.02;15.25;;;2.20;99.90;;;;;;5095184;28;20035;-61
2021/03/25 01:35:15;;;;;;;28.58;14.02;;;2.20;99.90;;;;;;5083586;28;20108;-61
2021/03/25 01:37:43;;;;;;;32.45;14.85;;;2.20;99.90;;;;;;5081625;28;20028;-62
2021/03/25 01:40:33;;;;;;;28.45;15.25;;;2.20;99.90;;;;;;5093488;28;20104;-60
2021/03/25 01:43:31;;;;;;;28.00;15.55;;;2.20;99.90;;;;;;5096214;28;20663;-61
2021/03/25 01:46:17;;;;;;;28.55;14.15;;;2.10;99.90;;;;;;5094067;28;20024;-61
2021/03/25 01:48:46;;;;;;;34.15;15.48;;;2.10;99.90;;;;;;5093212;28;20480;-62
2021/03/25 01:51:25;;;;;;;31.45;15.93;;;2.00;99.90;;;;;;5094833;28;20024;-65
2021/03/25 01:54:16;;;;;;;33.43;15.73;;;2.00;99.90;;;;;;5092860;28;20492;-61
2021/03/25 01:57:07;;;;;;;28.98;15.90;;;2.00;99.90;;;;;;5093374;28;20266;-64
2021/03/25 01:59:54;;;;;;;26.42;14.32;;;2.10;99.90;;;;;;5092784;28;20638;-61
2021/03/25 02:02:33;;;;;;;26.33;14.85;;;2.00;99.90;;;;;;5090539;28;20032;-62
2021/03/25 02:05:20;;;;;;;26.50;14.50;;;2.00;99.90;;;;;;5092334;28;20052;-62
2021/03/25 02:07:54;;;;;;;27.48;15.20;;;2.00;99.90;;;;;;5091586;28;20066;-61
2021/03/25 02:10:33;;;;;;;26.05;14.82;;;1.90;99.90;;;;;;5092793;28;20028;-63
2021/03/25 02:13:25;;;;;;;29.52;15.05;;;1.90;99.90;;;;;;5095798;28;20027;-61
2021/03/25 02:16:08;;;;;;;28.70;15.50;;;1.90;99.90;;;;;;5090753;28;20103;-62
2021/03/25 02:18:43;;;;;;;31.80;15.13;;;1.90;99.90;;;;;;5092714;28;20039;-54
2021/03/25 02:21:34;;;;;;;29.83;15.88;;;1.90;99.90;;;;;;5091335;28;20031;-61
2021/03/25 02:24:09;;;;;;;28.58;15.02;;;1.80;99.90;;;;;;5073930;28;20043;-62
2021/03/25 02:27:10;;;;;;;29.05;15.73;;;1.80;99.90;;;;;;5093746;28;20044;-61
2021/03/25 02:30:06;;;;;;;24.33;13.88;;;1.80;99.90;;;;;;5060442;28;20048;-62
2021/03/25 02:32:37;;;;;;;33.83;15.88;;;1.80;99.90;;;;;;5098143;28;20028;-61
2021/03/25 02:35:17;;;;;;;26.63;14.40;;;1.70;99.90;;;;;;5093792;28;20028;-61
2021/03/25 02:37:46;;;;;;;27.23;14.20;;;1.70;99.90;;;;;;5093614;28;20058;-61
2021/03/25 02:40:14;;;;;;;26.05;13.40;;;;;;;;;;5112514;28;20143;-65
2021/03/25 02:42:48;;;;;;;29.80;15.95;;;1.60;99.90;;;;;;5113467;28;20480;-61
2021/03/25 02:45:37;;;;;;;28.17;14.32;;;1.60;99.90;;;;;;5079040;28;20051;-65
2021/03/25 02:48:12;;;;;;;28.63;14.53;;;1.60;99.90;;;;;;5113273;28;20028;-61
2021/03/25 02:50:45;;;;;;;30.75;15.00;;;1.70;99.90;;;;;;5113859;28;20028;-62
2021/03/25 02:53:24;;;;;;;23.02;13.75;;;1.70;99.90;;;;;;5109247;28;20460;-64
2021/03/25 02:55:53;;;;;;;29.35;14.38;;;1.70;99.90;;;;;;5112485;28;20035;-62
2021/03/25 02:58:23;;;;;;;27.03;14.00;;;1.70;99.90;;;;;;5100251;28;20028;-61
2021/03/25 03:00:55;;;;;;;23.50;13.17;;;1.60;99.90;;;;;;5092707;28;20124;-61
2021/03/25 03:03:26;;;;;;;23.38;12.30;;;1.60;99.90;;;;;;5096206;28;20438;-61
2021/03/25 03:05:52;;;;;;;27.70;13.63;;;1.50;99.90;;;;;;5112832;28;20035;-60
2021/03/25 03:08:28;;;;;;;28.70;13.70;;;1.50;99.90;;;;;;5102858;28;20103;-61
2021/03/25 03:11:15;;;;;;;21.25;13.10;;;1.40;99.90;;;;;;5101135;28;20027;-61
2021/03/25 03:13:54;;;;;;;27.40;13.40;;;1.40;99.90;;;;;;5092810;28;20078;-61
2021/03/25 03:16:35;;;;;;;24.38;12.48;;;1.40;99.90;;;;;;5098905;28;20503;-61
2021/03/25 03:19:08;;;;;;;23.52;12.70;;;1.40;99.90;;;;;;5112416;28;20069;-60
2021/03/25 03:21:52;;;;;;;22.90;12.18;;;1.30;99.90;;;;;;5095795;28;20075;-61
2021/03/25 03:24:19;;;;;;;22.88;11.25;;;1.40;99.90;;;;;;5097800;28;20148;-61
2021/03/25 03:26:53;;;;;;;24.38;13.18;;;1.30;99.90;;;;;;5092491;28;20054;-62
2021/03/25 03:29:21;;;;;;;27.10;13.93;;;1.30;99.90;;;;;;5085690;28;20027;-61
2021/03/25 03:31:52;;;;;;;22.70;12.80;;;1.30;99.90;;;;;;5112021;28;20035;-60
2021/03/25 03:34:27;;;;;;;25.80;12.95;;;1.30;99.90;;;;;;5109963;28;20032;-62
2021/03/25 03:36:58;;;;;;;23.00;12.55;;;1.30;99.90;;;;;;5111906;28;20473;-64
2021/03/25 03:39:27;;;;;;;21.55;12.68;;;1.30;99.90;;;;;;5111373;28;20028;-62
2021/03/25 03:41:55;;;;;;;26.02;13.65;;;1.30;99.90;;;;;;5075817;28;20082;-59
2021/03/25 03:44:26;;;;;;;22.65;11.30;;;1.30;99.90;;;;;;5076832;28;20035;-60
2021/03/25 03:46:53;;;;;;;22.25;11.68;;;1.30;99.90;;;;;;5104501;28;20027;-61
2021/03/25 03:49:42;;;;;;;21.20;12.38;;;1.30;99.90;;;;;;5091281;28;20050;-62
2021/03/25 03:52:32;;;;;;;21.60;12.02;;;1.20;99.90;;;;;;5093153;28;20527;-56
2021/03/25 03:55:00;;;;;;;20.42;11.30;;;1.20;99.90;;;;;;5111512;28;20036;-62
2021/03/25 03:57:47;;;;;;;21.40;11.77;;;1.20;99.90;;;;;;5108335;28;20136;-62
2021/03/25 04:00:13;;;;;;;23.40;11.80;;;1.20;99.90;;;;;;5107838;28;20062;-64
2021/03/25 04:02:44;;;;;;;20.38;12.18;;;1.20;99.90;;;;;;5108342;28;20039;-61
2021/03/25 04:05:31;;;;;;;19.80;12.05;;;1.20;99.90;;;;;;5092217;28;20024;-60
2021/03/25 04:08:10;;;;;;;19.85;11.32;;;1.20;99.90;;;;;;5091857;28;20123;-61
2021/03/25 04:10:47;;;;;;;20.70;11.32;;;1.20;99.90;;;;;;5092151;28;20024;-62
2021/03/25 04:13:20;;;;;;;18.70;11.27;;;1.10;99.90;;;;;;5111775;28;20119;-63
2021/03/25 04:15:49;;;;;;;19.17;11.52;;;1.10;99.90;;;;;;5110171;28;20046;-62
2021/03/25 04:18:35;;;;;;;22.70;12.57;;;1.00;99.90;;;;;;5099120;28;20020;-62
2021/03/25 04:21:08;;;;;;;23.75;11.70;;;1.00;99.90;;;;;;5093128;28;20024;-61
2021/03/25 04:23:39;;;;;;;27.33;12.18;;;1.00;99.90;;;;;;5100583;28;20039;-61
2021/03/25 04:26:31;;;;;;;19.13;10.65;;;0.90;99.90;;;;;;5105519;28;20052;-60
2021/03/25 04:29:05;;;;;;;20.10;11.52;;;0.90;99.90;;;;;;5107504;28;20115;-65
2021/03/25 04:31:32;;;;;;;18.48;11.18;;;0.90;99.90;;;;;;5091065;28;20031;-63
2021/03/25 04:33:59;;;;;;;24.13;11.98;;;0.90;99.90;;;;;;5083427;28;20044;-61
2021/03/25 04:36:29;;;;;;;19.38;11.00;;;0.90;99.90;;;;;;5104978;28;20031;-61
2021/03/25 04:38:56;;;;;;;18.83;10.10;;;0.80;99.90;;;;;;5110722;28;20024;-61
2021/03/25 04:41:23;;;;;;;19.33;10.45;;;0.80;99.90;;;;;;5105744;28;20025;-62
2021/03/25 04:43:57;;;;;;;20.85;11.27;;;0.70;99.90;;;;;;5091737;28;20373;-59
2021/03/25 04:46:55;;;;;;;24.73;12.20;;;0.70;99.90;;;;;;5095692;28;20070;-62
2021/03/25 04:49:40;;;;;;;21.08;11.10;;;0.70;99.90;;;;;;5090401;28;20043;-62
2021/03/25 04:52:09;;;;;;;24.73;12.43;;;0.70;99.90;;;;;;5103808;28;20136;-64
2021/03/25 04:54:39;;;;;;;21.58;11.15;;;0.80;99.90;;;;;;5100368;28;20032;-61
2021/03/25 04:57:12;;;;;;;18.85;11.75;;;0.70;99.90;;;;;;5095585;28;20437;-60
2021/03/25 04:59:38;;;;;;;19.23;11.23;;;0.80;99.90;;;;;;5079436;28;20040;-61
2021/03/25 05:02:06;;;;;;;18.48;10.88;;;0.70;99.90;;;;;;5114871;28;20119;-61
2021/03/25 05:04:35;;;;;;;20.23;11.13;;;0.80;99.90;;;;;;5078116;28;20032;-61
2021/03/25 05:07:02;;;;;;;17.75;11.15;;;0.80;99.90;;;;;;5103388;28;20032;-61
2021/03/25 05:09:29;;;;;;;20.40;11.15;;;0.70;99.90;;;;;;5094387;28;20081;-62
2021/03/25 05:11:56;;;;;;;20.90;11.43;;;0.70;99.90;;;;;;5089208;28;20035;-63
2021/03/25 05:14:25;;;;;;;18.95;10.88;;;0.80;99.90;;;;;;5114216;28;20019;-62
2021/03/25 05:16:54;;;;;;;20.45;10.60;;;0.80;99.90;;;;;;5096441;28;20032;-59
2021/03/25 05:19:26;;;;;;;18.30;10.73;;;0.70;99.90;;;;;;5100694;28;20036;-64
2021/03/25 05:22:13;;;;;;;20.73;11.88;;;0.80;99.90;;;;;;5094840;28;20024;-57
2021/03/25 05:24:58;;;;;;;17.90;10.32;;;0.80;99.90;;;;;;5090600;28;20569;-61
2021/03/25 05:27:32;;;;;;;21.10;11.10;;;0.80;99.90;;;;;;5113701;28;20024;-61
2021/03/25 05:30:00;;;;;;;17.13;10.52;;;0.90;99.90;;;;;;5096524;28;20357;-61
2021/03/25 05:32:32;;;;;;;16.75;9.38;;;0.90;99.90;;;;;;5094552;28;20060;-61
2021/03/25 05:35:02;;;;;;;19.80;10.25;;;0.90;99.90;;;;;;5076789;28;20059;-61
2021/03/25 05:37:27;;;;;;;17.25;10.43;;;0.90;99.90;;;;;;5095494;28;20028;-61
2021/03/25 05:39:53;;;;;;;19.58;10.55;;;0.90;99.90;;;;;;5094582;28;20404;-61
2021/03/25 05:42:32;;;;;;;20.80;10.57;;;0.90;99.90;;;;;;5083956;28;20107;-64
2021/03/25 05:45:35;;;;;;;27.30;10.82;;;1.00;99.90;;;;;;5109786;28;20036;-61
2021/03/25 05:48:27;;;;;;;21.17;10.75;;;1.00;99.90;;;;;;5090453;28;20385;-61
2021/03/25 05:50:57;;;;;;;15.63;9.15;;;1.10;99.90;;;;;;5110737;28;20053;-60
2021/03/25 05:53:47;;;;;;;16.70;9.68;;;1.20;99.90;;;;;;5093730;28;20028;-61
2021/03/25 05:56:38;;;;;;;16.88;9.95;;;1.30;99.90;;;;;;5105979;28;20041;-61
2021/03/25 05:59:26;;;;;;;16.63;9.48;;;1.40;99.90;;;;;;5068432;28;20489;-61
2021/03/25 06:02:06;;;;;;;19.17;9.32;;;1.40;99.90;;;;;;5109798;28;20075;-61
2021/03/25 06:04:36;;;;;;;17.83;9.30;;;1.50;99.90;;;;;;5112981;28;20096;-60
2021/03/25 06:07:14;;;;;;;14.65;9.20;;;1.60;99.90;;;;;;5107858;28;20019;-61
2021/03/25 06:10:01;;;;;;;17.17;9.65;;;1.60;99.90;;;;;;5087918;28;20048;-61
2021/03/25 06:12:29;;;;;;;15.40;8.90;;;1.80;99.90;;;;;;5094131;28;20469;-59
2021/03/25 06:15:03;;;;;;;12.95;8.32;;;1.90;99.90;;;;;;5113360;28;20032;-61
2021/03/25 06:17:48;;;;;;;16.05;8.38;;;2.00;99.90;;;;;;5096793;28;20385;-61
2021/03/25 06:20:32;;;;;;;16.63;9.40;;;2.10;99.90;;;;;;5095176;28;20031;-62
2021/03/25 06:23:11;;;;;;;20.80;9.68;;;2.20;99.90;;;;;;5094223;28;20032;-61
2021/03/25 06:25:46;;;;;;;16.20;9.43;;;2.30;99.90;;;;;;5110753;28;20039;-62
2021/03/25 06:28:20;;;;;;;17.38;10.82;;;2.50;99.90;;;;;;5113699;28;20028;-60
2021/03/25 06:31:30;;;;;;;21.20;11.13;;;2.60;99.90;;;;;;5103955;28;20886;-61
2021/03/25 06:34:12;;;;;;;20.88;10.43;;;2.80;99.90;;;;;;5024754;28;20071;-62
2021/03/25 06:36:45;;;;;;;20.33;10.48;;;3.00;99.90;;;;;;5099247;28;20435;-55
2021/03/25 06:39:26;;;;;;;18.85;10.25;;;3.10;99.90;;;;;;5096600;28;20031;-59
2021/03/25 06:42:10;;;;;;;16.95;9.38;;;3.30;99.90;;;;;;5110958;28;20102;-61
2021/03/25 06:45:11;;;;;;;15.48;10.00;;;3.40;99.90;;;;;;5092616;28;20031;-60
2021/03/25 06:47:51;;;;;;;16.75;10.35;;;3.50;99.90;;;;;;5074779;28;20076;-61
2021/03/25 06:50:37;;;;;;;16.98;10.00;;;3.70;99.90;;;;;;5093294;28;20032;-60
2021/03/25 06:53:16;;;;;;;17.88;9.80;;;3.80;99.90;;;;;;5101420;28;20059;-62
2021/03/25 06:55:42;;;;;;;15.90;10.05;;;4.00;99.90;;;;;;5094407;28;20070;-60
2021/03/25 06:58:14;;;;;;;16.88;10.27;;;4.00;99.90;;;;;;5093276;28;20052;-61
2021/03/25 07:00:52;;;;;;;17.13;10.68;;;4.10;99.90;;;;;;5098841;28;20073;-61
2021/03/25 07:03:19;;;;;;;14.88;10.27;;;4.30;99.90;;;;;;5092818;28;20023;-60
2021/03/25 07:05:46;;;;;;;16.50;9.93;;;4.40;99.90;;;;;;5100691;28;20028;-60
2021/03/25 07:08:14;;;;;;;15.20;9.55;;;4.50;99.30;;;;;;5077524;28;20111;-64
2021/03/25 07:10:41;;;;;;;19.42;10.50;;;4.70;97.20;;;;;;5092343;28;20187;-60
2021/03/25 07:13:08;;;;;;;14.80;9.70;;;4.80;95.90;;;;;;5094264;28;20028;-62
2021/03/25 07:15:37;;;;;;;14.82;9.13;;;4.90;95.00;;;;;;5092017;28;20080;-61
2021/03/25 07:18:13;;;;;;;17.25;9.65;;;5.00;93.90;;;;;;5100699;28;20542;-62
2021/03/25 07:20:39;;;;;;;15.43;10.02;;;5.10;93.10;;;;;;5073857;28;20028;-66
2021/03/25 07:23:09;;;;;;;16.40;10.40;;;5.20;92.40;;;;;;5097411;28;20035;-67
2021/03/25 07:25:38;;;;;;;19.52;10.18;;;5.30;91.70;;;;;;5085788;28;20077;-65
2021/03/25 07:28:15;;;;;;;18.83;10.80;;;5.40;91.40;;;;;;5082134;28;20040;-66
2021/03/25 07:31:03;;;;;;;22.02;10.40;;;5.50;90.90;;;;;;5105516;28;20082;-65
2021/03/25 07:33:38;;;;;;;16.90;10.30;;;5.60;90.60;;;;;;5110993;28;20126;-62
2021/03/25 07:36:11;;;;;;;16.98;10.57;;;5.70;90.10;;;;;;5109790;28;20023;-61
2021/03/25 07:38:38;;;;;;;15.63;9.52;;;5.80;89.30;;;;;;5111351;28;20034;-61
2021/03/25 07:41:23;;;;;;;17.45;9.98;;;5.90;89.20;;;;;;5111753;28;20028;-61
2021/03/25 07:43:53;;;;;;;20.75;9.75;;;6.10;87.70;;;;;;5096878;28;20032;-61
2021/03/25 07:46:21;;;;;;;;;;;6.20;87.30;;;;;;5110697;28;20054;-61
2021/03/25 07:49:00;;;;;;;20.13;10.05;;;6.40;85.30;;;;;;5102630;28;19915;-61
2021/03/25 07:51:27;;;;;;;19.70;11.65;;;6.60;84.60;;;;;;5077455;28;20106;-61
2021/03/25 07:54:23;;;;;;;16.02;10.05;;;6.70;83.60;;;;;;5093561;28;20046;-61
2021/03/25 07:57:05;;;;;;;15.57;10.02;;;6.80;83.30;;;;;;5090174;28;20089;-61
2021/03/25 07:59:40;;;;;;;15.38;9.98;;;6.90;83.20;;;;;;5079637;28;20408;-61
2021/03/25 08:02:25;;;;;;;21.92;10.32;;;7.10;82.40;;;;;;5110040;28;20024;-61
2021/03/25 08:04:51;;;;;;;16.15;10.35;;;7.20;81.30;;;;;;5109931;28;20145;-61
2021/03/25 08:07:18;;;;;;;19.35;11.35;;;7.30;80.90;;;;;;5109344;28;20011;-60
2021/03/25 08:09:56;;;;;;;14.32;9.73;;;7.50;79.20;;;;;;5110766;28;20055;-61
2021/03/25 08:12:24;;;;;;;15.35;10.05;;;7.70;78.40;;;;;;5094212;28;20495;-59
2021/03/25 08:14:51;;;;;;;16.33;10.48;;;7.90;78.20;;;;;;5110567;28;20035;-60
2021/03/25 08:17:43;;;;;;;16.98;10.32;;;8.10;76.80;;;;;;5107813;28;20050;-60
2021/03/25 08:20:22;;;;;;;16.45;9.98;;;8.20;76.20;;;;;;5082171;28;20388;-59
2021/03/25 08:23:12;;;;;;;18.40;10.13;;;8.40;75.70;;;;;;5100323;28;20048;-60
2021/03/25 08:25:43;;;;;;;16.35;10.23;;;8.50;75.70;;;;;;5102067;28;20027;-61
2021/03/25 08:28:21;;;;;;;18.20;10.48;;;8.70;74.60;;;;;;5107104;28;20392;-59
2021/03/25 08:31:07;;;;;;;15.77;10.10;;;8.80;73.30;;;;;;5094975;28;20032;-61
2021/03/25 08:34:03;;;;;;;18.88;9.70;;;9.00;73.00;;;;;;5090615;28;20079;-62
2021/03/25 08:37:02;;;;;;;18.83;10.02;;;9.00;73.30;;;;;;5090108;28;20455;-61
2021/03/25 08:39:57;;;;;;;19.48;10.85;;;9.20;72.00;;;;;;5089823;28;20131;-61
2021/03/25 08:42:34;;;;;;;15.15;9.73;;;9.30;71.70;;;;;;5100486;28;20028;-58
2021/03/25 08:45:22;;;;;;;20.25;10.30;;;9.50;71.30;;;;;;5096454;28;20024;-63
2021/03/25 08:48:09;;;;;;;25.83;11.32;;;9.70;70.40;;;;;;5087305;28;20028;-62
2021/03/25 08:50:41;;;;;;;20.13;10.57;;;9.90;69.50;;;;;;5110247;28;20031;-61
2021/03/25 08:53:29;;;;;;;18.55;10.02;;;10.00;69.20;;;;;;5111046;28;20464;-60
2021/03/25 08:55:57;;;;;;;15.07;9.30;;;10.20;68.80;;;;;;5093229;28;20043;-56
2021/03/25 08:58:30;;;;;;;15.20;9.25;;;10.30;67.90;;;;;;5091044;28;20028;-62
2021/03/25 09:01:01;;;;;;;15.57;10.35;;;10.40;68.00;;;;;;5101626;28;20051;-63
2021/03/25 09:03:48;;;;;;;18.50;9.80;;;10.60;68.20;;;;;;5105877;28;20100;-63
2021/03/25 09:06:35;;;;;;;21.10;10.05;;;10.70;67.70;;;;;;5111043;28;20020;-60
2021/03/25 09:09:16;;;;;;;16.17;10.13;;;10.90;66.80;;;;;;5101486;28;20024;-60
2021/03/25 09:11:42;;;;;;;19.27;9.95;;;11.10;66.50;;;;;;5090994;28;20039;-59
2021/03/25 09:14:18;;;;;;;17.58;10.23;;;11.30;66.70;;;;;;5109751;28;20491;-60
2021/03/25 09:16:44;;;;;;;18.77;9.65;;;11.50;66.60;;;;;;5090565;28;20039;-61
2021/03/25 09:19:26;;;;;;;17.50;9.15;;;11.70;64.60;;;;;;5092297;28;20162;-60
2021/03/25 09:21:52;;;;;;;14.50;9.30;;;11.90;63.80;;;;;;5093028;28;20045;-61
2021/03/25 09:24:17;;;;;;;18.35;10.18;;;12.00;63.50;;;;;;5090833;28;20469;-60
2021/03/25 09:26:54;;;;;;;14.27;8.68;;;12.10;62.60;;;;;;5095866;28;20027;-64
2021/03/25 09:29:23;;;;;;;17.58;10.00;;;12.20;62.90;;;;;;5101338;28;20050;-59
2021/03/25 09:31:55;;;;;;;17.88;9.77;;;12.40;61.60;;;;;;5109766;28;20786;-60
2021/03/25 09:34:23;;;;;;;21.85;9.55;;;12.60;61.40;;;;;;5093283;28;20051;-60
2021/03/25 09:37:23;;;;;;;15.77;9.45;;;12.70;61.40;;;;;;5110087;28;20635;-60
2021/03/25 09:40:20;;;;;;;17.85;9.77;;;12.90;61.40;;;;;;5076928;28;20115;-61
2021/03/25 09:42:45;;;;;;;14.98;9.00;;;13.20;60.30;;;;;;5113570;28;20215;-61
2021/03/25 09:45:28;;;;;;;14.88;8.90;;;13.20;59.80;;;;;;5110051;28;20066;-61
2021/03/25 09:47:58;;;;;;;15.30;8.88;;;13.30;59.80;;;;;;5091798;28;20027;-61
2021/03/25 09:50:23;;;;;;;13.57;8.43;;;13.30;59.10;;;;;;5094182;28;20025;-61
2021/03/25 09:52:52;;;;;;;25.63;10.20;;;13.30;59.70;;;;;;5111387;28;20024;-61
2021/03/25 09:55:21;;;;;;;16.63;8.63;;;13.40;60.30;;;;;;5114254;28;20032;-61
2021/03/25 09:57:47;;;;;;;12.57;8.60;;;13.50;60.60;;;;;;5104064;28;20572;-61
2021/03/25 10:00:22;;;;;;;14.75;8.18;;;13.60;59.60;;;;;;5095156;28;20143;-60
2021/03/25 10:02:48;;;;;;;13.38;8.38;;;13.70;58.50;;;;;;5112425;28;20045;-60
2021/03/25 10:05:27;;;;;;;17.90;9.05;;;13.80;58.60;;;;;;5090723;28;20029;-61
2021/03/25 10:08:14;;;;;;;18.30;8.27;;;13.80;59.00;;;;;;5073890;28;20036;-59
2021/03/25 10:10:43;;;;;;;14.75;8.15;;;14.00;57.30;;;;;;5034022;28;20040;-60
2021/03/25 10:13:12;;;;;;;16.27;8.98;;;14.00;58.20;;;;;;5090453;28;20035;-61
2021/03/25 10:15:44;;;;;;;11.02;7.30;;;14.10;58.30;;;;;;5094277;28;20040;-62
2021/03/25 10:18:14;;;;;;;16.73;8.55;;;14.20;57.20;;;;;;5113513;28;20076;-62
2021/03/25 10:21:03;;;;;;;14.00;7.88;;;14.30;56.80;;;;;;5111720;28;20106;-61
2021/03/25 10:23:32;;;;;;;26.75;8.50;;;14.50;55.70;;;;;;5102534;28;20042;-64
2021/03/25 10:26:10;;;;;;;16.15;7.65;;;14.60;55.40;;;;;;5102123;28;20097;-60
2021/03/25 10:28:52;;;;;;;11.95;6.65;;;14.70;51.60;;;;;;5094256;28;20039;-61
2021/03/25 10:31:37;;;;;;;12.63;7.15;;;14.80;51.60;;;;;;5103864;28;20020;-60
2021/03/25 10:34:07;;;;;;;12.30;7.53;;;15.00;53.20;;;;;;5111198;28;20031;-59
2021/03/25 10:36:37;;;;;;;13.68;7.07;;;15.10;52.90;;;;;;5073508;28;20040;-62
2021/03/25 10:39:04;;;;;;;31.27;7.78;;;15.20;51.40;;;;;;5108182;28;20024;-61
2021/03/25 10:41:35;;;;;;;17.17;7.40;;;15.10;50.80;;;;;;5104627;28;20113;-64
2021/03/25 10:44:37;;;;;;;10.25;6.43;;;15.10;50.70;;;;;;5113199;28;20019;-61
2021/03/25 10:47:06;;;;;;;12.60;6.63;;;15.20;49.90;;;;;;4998647;28;20859;-61
2021/03/25 10:49:45;;;;;;;19.45;6.60;;;15.30;48.50;;;;;;5093531;28;20039;-65
2021/03/25 10:52:35;;;;;;;11.77;6.35;;;15.40;49.70;;;;;;5097461;28;20032;-62
2021/03/25 10:55:10;;;;;;;17.70;7.55;;;15.40;49.70;;;;;;5073669;28;20032;-61
2021/03/25 10:57:36;;;;;;;12.27;6.75;;;15.30;49.00;;;;;;5092962;28;20036;-62
2021/03/25 11:00:22;;;;;;;21.27;7.20;;;15.40;50.60;;;;;;5092415;28;20074;-61
2021/03/25 11:02:48;;;;;;;14.48;6.78;;;15.50;50.00;;;;;;5111937;28;20070;-61
2021/03/25 11:05:21;;;;;;;10.45;6.65;;;15.70;47.80;;;;;;5083461;28;20031;-61
2021/03/25 11:07:50;;;;;;;14.50;6.63;;;15.80;48.50;;;;;;5083770;28;20102;-60
2021/03/25 11:10:21;;;;;;;18.10;7.22;;;15.90;48.50;;;;;;5093947;28;20040;-60
2021/03/25 11:13:02;;;;;;;11.50;6.75;;;16.00;48.60;;;;;;5093659;28;20374;-60
2021/03/25 11:15:39;;;;;;;15.52;6.90;;;16.20;47.50;;;;;;5112408;28;20038;-62
2021/03/25 11:18:37;;;;;;;15.85;5.70;;;16.40;46.80;;;;;;5074945;28;20581;-61
2021/03/25 11:21:05;;;;;;;9.23;5.93;;;16.50;46.10;;;;;;5110651;28;20179;-61
2021/03/25 11:23:32;;;;;;;12.30;5.75;;;16.70;44.20;;;;;;5107235;28;20032;-64
2021/03/25 11:26:00;;;;;;;8.70;5.25;;;17.00;44.30;;;;;;5108832;28;20035;-63
2021/03/25 11:28:30;;;;;;;12.07;6.50;;;17.10;42.80;;;;;;5087394;28;20469;-62
2021/03/25 11:31:18;;;;;;;11.27;5.72;;;17.20;43.50;;;;;;5103826;28;20035;-60
2021/03/25 11:33:44;;;;;;;16.60;6.32;;;17.50;43.30;;;;;;5084986;28;20047;-62
2021/03/25 11:36:11;;;;;;;10.05;5.57;;;17.90;41.30;;;;;;5099819;28;20381;-62
2021/03/25 11:38:43;;;;;;;8.63;5.50;;;18.20;40.20;;;;;;5098592;28;20028;-63
2021/03/25 11:41:15;;;;;;;27.95;22.33;;;18.40;39.70;;;;;;5093579;28;20093;-61
2021/03/25 11:43:43;;;;;;;11.88;8.80;;;18.70;40.50;;;;;;5103621;28;20036;-61
2021/03/25 11:46:10;;;;;;;16.58;9.88;;;18.80;39.20;;;;;;5112078;28;20024;-62
2021/03/25 11:48:37;;;;;;;10.57;5.82;;;19.00;38.70;;;;;;5104565;28;20103;-68
2021/03/25 11:51:15;;;;;;;10.68;6.30;;;19.20;38.50;;;;;;5109302;28;20032;-63
2021/03/25 11:53:43;;;;;;;11.05;5.60;;;19.40;38.40;;;;;;5090638;28;20035;-63
2021/03/25 11:56:32;;;;;;;11.48;6.38;;;19.60;38.40;;;;;;5091857;28;20030;-63
2021/03/25 11:59:00;;;;;;;11.13;5.47;;;19.80;37.90;;;;;;5091370;28;20469;-63
2021/03/25 12:01:30;;;;;;;12.20;6.43;;;20.00;37.70;;;;;;5102384;28;20526;-63
2021/03/25 12:04:02;;;;;;;11.05;5.65;;;20.20;38.20;;;;;;5110471;28;20015;-63
2021/03/25 12:06:36;;;;;;;8.75;5.93;;;20.40;37.70;;;;;;5108060;28;20468;-63
2021/03/25 12:09:13;;;;;;;12.07;6.53;;;20.70;37.60;;;;;;5091906;28;20024;-63
2021/03/25 12:11:40;;;;;;;11.85;7.43;;;21.10;36.80;;;;;;5073953;28;20028;-63
2021/03/25 12:14:07;;;;;;;10.75;6.28;;;21.40;36.30;;;;;;5098102;28;20031;-63
2021/03/25 12:16:35;;;;;;;13.77;8.15;;;21.40;35.90;;;;;;5096444;28;20027;-65
2021/03/25 12:19:01;;;;;;;12.15;7.15;;;21.20;36.60;;;;;;5105448;28;20030;-63
2021/03/25 12:21:27;;;;;;;17.58;7.70;;;21.10;36.30;;;;;;5110286;28;20031;-63
2021/03/25 12:23:55;;;;;;;13.35;7.20;;;20.90;37.30;;;;;;5103123;28;20028;-65
2021/03/25 12:26:22;;;;;;;19.52;7.65;;;20.60;37.50;;;;;;5111000;28;20084;-62
2021/03/25 12:28:48;;;;;;;19.17;8.48;;;20.60;38.30;;;;;;5082357;28;20428;-62
2021/03/25 12:31:27;;;;;;;14.48;7.70;;;20.50;37.30;;;;;;5106420;28;20448;-64
2021/03/25 12:33:53;;;;;;;10.07;7.45;;;20.50;37.70;;;;;;5090564;28;20082;-63
2021/03/25 12:36:19;;;;;;;15.18;8.88;;;20.40;38.60;;;;;;5070520;28;20111;-64
2021/03/25 12:38:46;;;;;;;16.20;8.23;;;20.30;38.50;;;;;;5092742;28;20031;-63
2021/03/25 12:41:20;;;;;;;18.27;8.30;;;20.30;38.50;;;;;;5090834;28;20024;-63
2021/03/25 12:43:46;;;;;;;13.50;7.22;;;20.30;39.20;;;;;;5093140;28;20040;-63
2021/03/25 12:46:12;;;;;;;15.85;8.82;;;20.50;39.20;;;;;;5100661;28;20073;-63
2021/03/25 12:48:38;;;;;;;13.23;8.95;;;21.00;38.30;;;;;;5090608;28;20118;-63
2021/03/25 12:51:07;;;;;;;24.48;7.90;;;21.40;37.90;;;;;;5101984;28;20384;-64
2021/03/25 12:53:33;;;;;;;16.50;7.60;;;21.70;37.60;;;;;;5102868;28;20105;-66
2021/03/25 12:56:01;;;;;;;13.00;8.35;;;21.90;37.20;;;;;;5107523;28;20027;-63
2021/03/25 12:58:38;;;;;;;15.35;8.20;;;21.60;36.80;;;;;;5096688;28;20048;-63
2021/03/25 13:01:19;;;;;;;14.20;8.23;;;21.10;37.50;;;;;;5101377;28;20066;-64
2021/03/25 13:03:46;;;;;;;12.48;8.20;;;20.60;38.70;;;;;;5106714;28;20031;-64
2021/03/25 13:06:13;;;;;;;15.07;7.68;;;20.10;39.80;;;;;;5102684;28;20028;-63
2021/03/25 13:08:39;;;;;;;12.60;8.32;;;19.70;40.40;;;;;;5091705;28;20043;-64
2021/03/25 13:11:06;;;;;;;11.32;7.28;;;19.40;40.90;;;;;;5098073;28;20023;-63
2021/03/25 13:13:33;;;;;;;13.80;8.25;;;19.10;41.60;;;;;;5103944;28;20027;-63
2021/03/25 13:15:59;;;;;;;11.73;6.88;;;18.80;42.30;;;;;;5114365;28;20030;-61